createdAt,value
2022-09-21T00:01:23.581Z,12.00
2022-09-21T00:03:59.644Z,15.07
2022-09-21T00:06:29.274Z,10.48
2022-09-21T00:08:56.628Z,9.70
2022-09-21T00:11:28.416Z,11.55
2022-09-21T00:14:04.545Z,10.35
2022-09-21T00:16:32.314Z,9.88
2022-09-21T00:19:00.317Z,10.52
2022-09-21T00:21:28.276Z,7.47
2022-09-21T00:23:55.509Z,7.72
2022-09-21T00:26:25.165Z,8.75
2022-09-21T00:28:54.910Z,10.55
2022-09-21T00:31:22.698Z,8.32
2022-09-21T00:33:51.210Z,9.20
2022-09-21T00:36:21.738Z,6.93
2022-09-21T00:38:55.230Z,6.03
2022-09-21T00:41:23.086Z,8.70
2022-09-21T00:44:18.590Z,6.93
2022-09-21T00:46:48.264Z,9.27
2022-09-21T00:49:16.145Z,7.85
2022-09-21T00:51:43.567Z,6.68
2022-09-21T00:54:20.016Z,8.05
2022-09-21T00:56:47.267Z,8.63
2022-09-21T00:59:18.952Z,8.25
2022-09-21T01:01:48.460Z,9.77
2022-09-21T01:04:18.864Z,7.25
2022-09-21T01:06:47.869Z,9.98
2022-09-21T01:09:16.145Z,9.07
2022-09-21T01:12:29.891Z,8.85
2022-09-21T01:15:19.696Z,9.95
2022-09-21T01:18:00.230Z,8.85
2022-09-21T01:20:39.455Z,7.45
2022-09-21T01:23:30.083Z,8.07
2022-09-21T01:26:34.239Z,6.32
2022-09-21T01:29:28.289Z,7.63
2022-09-21T01:32:12.330Z,5.82
2022-09-21T01:35:03.334Z,5.22
2022-09-21T01:37:43.333Z,5.82
2022-09-21T01:40:18.573Z,8.60
2022-09-21T01:42:48.632Z,7.10
2022-09-21T01:45:18.544Z,6.80
2022-09-21T01:47:49.392Z,6.22
2022-09-21T01:50:26.138Z,7.20
2022-09-21T01:53:06.928Z,9.07
2022-09-21T01:56:05.991Z,5.25
2022-09-21T01:58:44.911Z,5.95
2022-09-21T02:01:17.390Z,6.78
2022-09-21T02:04:06.072Z,7.95
2022-09-21T02:06:33.250Z,5.40
2022-09-21T02:09:00.216Z,6.07
2022-09-21T02:11:27.143Z,6.43
2022-09-21T02:13:56.157Z,7.82
2022-09-21T02:17:29.143Z,8.07
2022-09-21T02:20:02.998Z,7.53
2022-09-21T02:22:51.000Z,6.45
2022-09-21T02:25:44.262Z,5.97
2022-09-21T02:28:39.874Z,5.82
2022-09-21T02:31:41.448Z,6.82
2022-09-21T02:34:30.131Z,6.30
2022-09-21T02:37:32.325Z,6.32
2022-09-21T02:40:13.467Z,6.32
2022-09-21T02:42:42.978Z,6.88
2022-09-21T02:45:21.464Z,8.75
2022-09-21T02:47:59.603Z,8.93
2022-09-21T02:50:35.837Z,6.75
2022-09-21T02:53:06.767Z,7.35
2022-09-21T02:55:34.420Z,11.13
2022-09-21T02:58:06.923Z,7.25
2022-09-21T03:00:35.799Z,8.60
2022-09-21T03:03:17.352Z,11.00
2022-09-21T03:05:48.669Z,86.07
2022-09-21T03:08:17.311Z,207.25
2022-09-21T03:10:44.615Z,251.52
2022-09-21T03:13:11.858Z,109.63
2022-09-21T03:15:40.619Z,33.92
2022-09-21T03:18:10.111Z,26.33
2022-09-21T03:20:40.923Z,55.45
2022-09-21T03:23:08.141Z,76.22
2022-09-21T03:25:36.012Z,46.70
2022-09-21T03:28:03.086Z,33.65
2022-09-21T03:30:30.063Z,33.13
2022-09-21T03:32:57.005Z,23.58
2022-09-21T03:35:26.717Z,18.63
2022-09-21T03:37:55.315Z,11.88
2022-09-21T03:40:23.257Z,9.93
2022-09-21T03:42:50.536Z,10.27
2022-09-21T03:45:17.460Z,16.08
2022-09-21T03:47:44.413Z,10.02
2022-09-21T03:50:12.098Z,11.65
2022-09-21T03:52:39.274Z,9.65
2022-09-21T03:55:08.646Z,16.30
2022-09-21T03:57:39.276Z,12.48
2022-09-21T04:00:10.662Z,13.40
2022-09-21T04:02:40.660Z,12.38
2022-09-21T04:05:14.952Z,11.57
2022-09-21T04:07:45.827Z,18.67
2022-09-21T04:10:16.774Z,14.43
2022-09-21T04:12:44.660Z,9.50
2022-09-21T04:15:14.686Z,10.88
2022-09-21T04:17:41.744Z,12.98
2022-09-21T04:20:09.695Z,15.07
2022-09-21T04:22:41.153Z,16.08
2022-09-21T04:25:11.135Z,12.23
2022-09-21T04:27:38.028Z,14.10
2022-09-21T04:30:06.391Z,16.65
2022-09-21T04:32:33.380Z,43.55
2022-09-21T04:35:00.256Z,34.80
2022-09-21T04:37:27.295Z,31.90
2022-09-21T04:39:54.177Z,17.98
2022-09-21T04:42:21.551Z,14.13
2022-09-21T04:44:48.466Z,11.23
2022-09-21T04:47:15.491Z,12.10
2022-09-21T04:49:42.360Z,10.80
2022-09-21T04:52:09.254Z,10.85
2022-09-21T04:54:36.213Z,10.15
2022-09-21T04:57:03.118Z,14.90
2022-09-21T04:59:30.101Z,17.27
2022-09-21T05:01:57.003Z,16.02
2022-09-21T05:04:25.443Z,11.40
2022-09-21T05:06:52.415Z,12.82
2022-09-21T05:09:37.717Z,13.32
2022-09-21T05:12:04.708Z,15.27
2022-09-21T05:14:31.583Z,14.60
2022-09-21T05:16:58.493Z,14.98
2022-09-21T05:19:25.409Z,14.75
2022-09-21T05:21:52.311Z,9.45
2022-09-21T05:24:19.220Z,9.57
2022-09-21T05:26:46.083Z,14.38
2022-09-21T05:29:13.201Z,20.98
2022-09-21T05:31:52.664Z,29.70
2022-09-21T05:34:38.663Z,13.40
2022-09-21T05:37:31.596Z,11.13
2022-09-21T05:39:58.995Z,6.72
2022-09-21T05:42:26.158Z,8.45
2022-09-21T05:44:53.657Z,12.27
2022-09-21T05:47:40.099Z,8.90
2022-09-21T05:50:55.604Z,9.57
2022-09-21T05:53:54.887Z,12.90
2022-09-21T05:57:05.722Z,9.48
2022-09-21T06:00:04.544Z,8.45
2022-09-21T06:03:21.942Z,8.07
2022-09-21T06:05:48.833Z,10.85
2022-09-21T06:08:15.741Z,8.80
2022-09-21T06:10:42.655Z,8.20
2022-09-21T06:13:09.535Z,9.65
2022-09-21T06:15:38.494Z,7.50
2022-09-21T06:18:11.296Z,6.30
2022-09-21T06:20:40.084Z,9.18
2022-09-21T06:23:13.089Z,7.50
2022-09-21T06:25:40.524Z,7.97
2022-09-21T06:28:11.831Z,8.32
2022-09-21T06:30:40.911Z,11.13
2022-09-21T06:33:08.753Z,6.60
2022-09-21T06:35:37.217Z,6.75
2022-09-21T06:38:06.963Z,6.38
2022-09-21T06:40:37.353Z,6.45
2022-09-21T06:43:06.007Z,7.85
2022-09-21T06:45:32.927Z,6.40
2022-09-21T06:47:59.929Z,5.72
2022-09-21T06:50:27.005Z,4.75
2022-09-21T06:52:53.985Z,3.67
2022-09-21T06:55:20.938Z,4.75
2022-09-21T06:57:47.890Z,3.85
2022-09-21T07:00:15.277Z,4.70
2022-09-21T07:02:45.642Z,4.13
2022-09-21T07:05:13.092Z,4.97
2022-09-21T07:07:40.543Z,5.72
2022-09-21T07:10:14.489Z,4.10
2022-09-21T07:12:44.038Z,3.47
2022-09-21T07:15:11.954Z,3.28
2022-09-21T07:17:39.738Z,4.82
2022-09-21T07:20:08.271Z,3.47
2022-09-21T07:22:35.935Z,4.75
2022-09-21T07:25:04.578Z,2.78
2022-09-21T07:27:33.851Z,4.72
2022-09-21T07:30:00.847Z,3.53
2022-09-21T07:32:27.825Z,3.85
2022-09-21T07:34:57.174Z,3.70
2022-09-21T07:37:25.349Z,3.35
2022-09-21T07:39:53.287Z,4.00
2022-09-21T07:42:22.761Z,2.65
2022-09-21T07:44:50.931Z,3.05
2022-09-21T07:47:18.062Z,2.60
2022-09-21T07:49:45.812Z,2.03
2022-09-21T07:52:12.742Z,3.53
2022-09-21T07:54:39.708Z,3.13
2022-09-21T07:57:24.823Z,2.65
2022-09-21T07:59:51.713Z,4.70
2022-09-21T08:02:18.786Z,1.90
2022-09-21T08:04:45.768Z,6.50
2022-09-21T08:07:13.381Z,1.83
2022-09-21T08:09:40.921Z,3.08
2022-09-21T08:12:09.191Z,2.22
2022-09-21T08:14:36.284Z,2.60
2022-09-21T08:17:03.195Z,1.70
2022-09-21T08:19:30.085Z,2.13
2022-09-21T08:21:58.062Z,1.67
2022-09-21T08:24:26.882Z,2.53
2022-09-21T08:26:55.862Z,2.22
2022-09-21T08:29:24.996Z,3.95
2022-09-21T08:31:53.922Z,3.35
2022-09-21T08:34:20.928Z,1.75
2022-09-21T08:36:51.743Z,2.53
2022-09-21T08:39:21.401Z,2.90
2022-09-21T08:42:14.537Z,1.25
2022-09-21T08:44:49.703Z,1.30
2022-09-21T08:47:27.181Z,1.60
2022-09-21T08:49:57.845Z,1.52
2022-09-21T08:52:26.036Z,3.00
2022-09-21T08:55:00.324Z,2.33
2022-09-21T08:57:31.502Z,2.63
2022-09-21T09:00:00.851Z,1.70
2022-09-21T09:03:04.903Z,1.52
2022-09-21T09:06:02.013Z,1.38
2022-09-21T09:09:04.035Z,1.20
2022-09-21T09:11:59.432Z,1.58
2022-09-21T09:15:06.327Z,2.92
2022-09-21T09:17:47.925Z,1.20
2022-09-21T09:20:34.235Z,3.47
2022-09-21T09:23:21.854Z,2.70
2022-09-21T09:25:54.342Z,1.95
2022-09-21T09:28:28.139Z,1.35
2022-09-21T09:31:35.034Z,2.40
2022-09-21T09:34:26.557Z,4.55
2022-09-21T09:37:00.172Z,1.85
2022-09-21T09:39:29.787Z,1.25
2022-09-21T09:42:34.966Z,2.03
2022-09-21T09:45:26.553Z,2.53
2022-09-21T09:48:27.329Z,2.10
2022-09-21T09:50:54.449Z,3.08
2022-09-21T09:53:25.539Z,1.98
2022-09-21T09:55:57.886Z,3.47
2022-09-21T09:58:48.137Z,2.67
2022-09-21T10:01:46.576Z,2.38
2022-09-21T10:04:18.179Z,2.88
2022-09-21T10:06:46.996Z,6.20
2022-09-21T10:09:32.576Z,3.30
2022-09-21T10:12:09.512Z,3.45
2022-09-21T10:14:37.273Z,4.65
2022-09-21T10:17:07.957Z,2.08
2022-09-21T10:19:35.193Z,2.45
2022-09-21T10:22:04.434Z,1.73
2022-09-21T10:24:36.509Z,2.20
2022-09-21T10:27:15.861Z,2.58
2022-09-21T10:29:46.224Z,2.47
2022-09-21T10:32:14.736Z,1.23
2022-09-21T10:35:00.898Z,1.40
2022-09-21T10:37:43.315Z,1.00
2022-09-21T10:40:26.515Z,1.08
2022-09-21T10:42:59.098Z,0.98
2022-09-21T10:45:30.677Z,1.20
2022-09-21T10:48:06.313Z,2.63
2022-09-21T10:50:45.334Z,1.38
2022-09-21T10:53:35.999Z,1.25
2022-09-21T10:56:16.358Z,1.10
2022-09-21T10:59:21.890Z,1.98
2022-09-21T11:01:55.447Z,1.25
2022-09-21T11:04:46.713Z,1.25
2022-09-21T11:07:29.399Z,1.50
2022-09-21T11:10:16.260Z,1.42
2022-09-21T11:13:05.316Z,1.05
2022-09-21T11:16:10.543Z,5.90
2022-09-21T11:19:06.509Z,1.40
2022-09-21T11:21:55.560Z,3.10
2022-09-21T11:24:30.441Z,2.60
2022-09-21T11:27:04.058Z,3.00
2022-09-21T11:29:55.037Z,1.20
2022-09-21T11:32:48.480Z,0.95
2022-09-21T11:35:43.566Z,1.05
2022-09-21T11:38:36.080Z,1.05
2022-09-21T11:41:30.116Z,2.45
2022-09-21T11:44:38.302Z,1.27
2022-09-21T11:47:40.583Z,0.75
2022-09-21T11:50:47.488Z,3.40
2022-09-21T11:53:48.820Z,2.05
2022-09-21T11:56:57.725Z,0.70
2022-09-21T11:59:46.215Z,4.78
2022-09-21T12:05:39.225Z,1.60
2022-09-21T12:08:42.495Z,1.77
2022-09-21T12:11:28.921Z,0.98
2022-09-21T12:14:29.383Z,0.90
2022-09-21T12:17:16.692Z,0.70
2022-09-21T12:20:21.459Z,1.00
2022-09-21T12:22:55.979Z,2.30
2022-09-21T12:25:39.542Z,0.88
2022-09-21T12:28:31.777Z,0.80
2022-09-21T12:31:06.175Z,2.92
2022-09-21T12:33:51.631Z,0.82
2022-09-21T12:36:29.328Z,2.72
2022-09-21T12:39:05.713Z,0.60
2022-09-21T12:41:58.652Z,3.33
2022-09-21T12:44:54.220Z,3.70
2022-09-21T12:47:54.128Z,0.88
2022-09-21T12:50:34.468Z,0.70
2022-09-21T12:53:02.743Z,0.98
2022-09-21T12:56:09.646Z,3.42
2022-09-21T12:59:26.147Z,1.73
2022-09-21T13:02:12.353Z,4.00
2022-09-21T13:04:58.698Z,1.35
2022-09-21T13:07:45.807Z,1.30
2022-09-21T13:11:01.281Z,1.25
2022-09-21T13:13:51.328Z,0.60
2022-09-21T13:16:38.667Z,3.72
2022-09-21T13:19:22.791Z,1.08
2022-09-21T13:22:19.782Z,2.45
2022-09-21T13:25:10.068Z,0.70
2022-09-21T13:28:00.687Z,1.83
2022-09-21T13:30:35.389Z,3.72
2022-09-21T13:33:18.142Z,2.30
2022-09-21T13:35:48.106Z,2.92
2022-09-21T13:38:58.041Z,1.10
2022-09-21T13:41:45.428Z,1.83
2022-09-21T13:44:33.602Z,1.88
2022-09-21T13:47:01.633Z,0.98
2022-09-21T13:49:34.265Z,0.98
2022-09-21T13:52:15.680Z,0.85
2022-09-21T13:54:52.111Z,1.42
2022-09-21T13:57:32.217Z,1.13
2022-09-21T14:00:12.495Z,1.88
2022-09-21T14:02:54.822Z,6.65
2022-09-21T14:05:41.868Z,2.70
2022-09-21T14:08:14.743Z,1.70
2022-09-21T14:11:22.504Z,2.00
2022-09-21T14:14:19.149Z,2.33
2022-09-21T14:16:52.130Z,1.98
2022-09-21T14:19:19.079Z,2.65
2022-09-21T14:22:03.955Z,1.60
2022-09-21T14:24:41.575Z,2.15
2022-09-21T14:27:36.905Z,1.15
2022-09-21T14:30:21.809Z,2.10
2022-09-21T14:33:00.887Z,0.55
2022-09-21T14:35:38.265Z,11.13
2022-09-21T14:38:17.690Z,1.75
2022-09-21T14:40:50.973Z,2.70
2022-09-21T14:43:34.506Z,1.08
2022-09-21T14:46:50.950Z,2.85
2022-09-21T14:49:45.061Z,1.48
2022-09-21T14:52:38.187Z,3.45
2022-09-21T14:55:42.530Z,0.82
2022-09-21T14:58:46.866Z,0.75
2022-09-21T15:01:33.314Z,1.38
2022-09-21T15:04:46.527Z,0.50
2022-09-21T15:08:04.443Z,1.00
2022-09-21T15:10:56.224Z,1.85
2022-09-21T15:14:03.616Z,2.70
2022-09-21T15:16:39.982Z,2.00
2022-09-21T15:19:23.268Z,1.65
2022-09-21T15:21:56.767Z,1.50
2022-09-21T15:24:32.002Z,2.15
2022-09-21T15:27:07.007Z,1.67
2022-09-21T15:29:34.499Z,2.33
2022-09-21T15:32:02.033Z,1.90
2022-09-21T15:34:29.628Z,1.58
2022-09-21T15:37:16.376Z,3.83
2022-09-21T15:39:43.584Z,3.35
2022-09-21T15:42:10.543Z,1.92
2022-09-21T15:44:39.401Z,8.00
2022-09-21T15:47:12.781Z,1.92
2022-09-21T15:49:41.052Z,1.10
2022-09-21T15:52:31.617Z,4.28
2022-09-21T15:55:03.125Z,4.53
2022-09-21T15:57:40.357Z,3.13
2022-09-21T16:00:16.310Z,3.92
2022-09-21T16:03:19.215Z,2.90
2022-09-21T16:05:54.472Z,3.60
2022-09-21T16:08:33.534Z,2.75
2022-09-21T16:11:33.258Z,3.38
2022-09-21T16:14:33.188Z,1.98
2022-09-21T16:17:12.108Z,4.15
2022-09-21T16:19:51.191Z,1.83
2022-09-21T16:22:29.456Z,2.10
2022-09-21T16:24:59.639Z,0.80
2022-09-21T16:27:30.061Z,5.68
2022-09-21T16:29:58.775Z,1.02
2022-09-21T16:32:34.330Z,0.75
2022-09-21T16:35:31.714Z,1.30
2022-09-21T16:37:59.269Z,1.83
2022-09-21T16:40:27.559Z,5.53
2022-09-21T16:42:55.759Z,9.30
2022-09-21T16:45:31.369Z,6.72
2022-09-21T16:47:59.545Z,5.28
2022-09-21T16:50:26.449Z,8.60
2022-09-21T16:52:53.406Z,5.13
2022-09-21T16:55:25.550Z,6.28
2022-09-21T16:57:55.260Z,3.35
2022-09-21T17:00:22.309Z,5.40
2022-09-21T17:02:49.833Z,2.90
2022-09-21T17:05:19.373Z,5.93
2022-09-21T17:08:04.662Z,6.25
2022-09-21T17:10:37.105Z,5.38
2022-09-21T17:13:06.336Z,4.35
2022-09-21T17:15:33.878Z,4.63
2022-09-21T17:18:00.843Z,3.95
2022-09-21T17:20:41.719Z,2.55
2022-09-21T17:23:09.395Z,4.45
2022-09-21T17:25:37.029Z,2.97
2022-09-21T17:28:13.178Z,2.65
2022-09-21T17:30:42.574Z,3.28
2022-09-21T17:33:10.852Z,6.45
2022-09-21T17:35:40.617Z,4.13
2022-09-21T17:38:12.471Z,5.43
2022-09-21T17:40:42.664Z,5.20
2022-09-21T17:44:16.891Z,5.10
2022-09-21T17:46:59.006Z,11.15
2022-09-21T17:49:26.488Z,52.72
2022-09-21T17:52:11.854Z,155.63
2022-09-21T17:54:39.968Z,119.60
2022-09-21T17:57:46.068Z,110.22
2022-09-21T18:00:27.246Z,74.93
2022-09-21T18:02:54.737Z,252.85
2022-09-21T18:05:26.913Z,292.67
2022-09-21T18:07:54.770Z,346.50
2022-09-21T18:10:25.928Z,292.50
2022-09-21T18:13:23.226Z,161.10
2022-09-21T18:16:33.742Z,138.20
2022-09-21T18:19:23.441Z,355.23
2022-09-21T18:21:58.946Z,370.05
2022-09-21T18:24:34.059Z,302.98
2022-09-21T18:27:01.833Z,159.32
2022-09-21T18:29:41.113Z,101.95
2022-09-21T18:32:36.425Z,95.13
2022-09-21T18:35:45.099Z,54.70
2022-09-21T18:38:25.276Z,52.00
2022-09-21T18:41:21.580Z,58.13
2022-09-21T18:44:13.816Z,62.10
2022-09-21T18:47:26.407Z,51.63
2022-09-21T18:50:20.161Z,59.20
2022-09-21T18:53:16.118Z,57.83
2022-09-21T18:55:43.279Z,43.60
2022-09-21T18:58:16.158Z,27.25
2022-09-21T19:00:43.401Z,21.08
2022-09-21T19:03:18.138Z,19.08
2022-09-21T19:06:10.355Z,39.05
2022-09-21T19:09:04.455Z,65.07
2022-09-21T19:11:44.225Z,72.93
2022-09-21T19:14:49.981Z,37.30
2022-09-21T19:17:35.602Z,19.13
2022-09-21T19:20:29.353Z,19.48
2022-09-21T19:23:12.001Z,15.57
2022-09-21T19:25:53.462Z,16.13
2022-09-21T19:28:50.511Z,16.83
2022-09-21T19:31:19.316Z,17.67
2022-09-21T19:33:50.874Z,14.25
2022-09-21T19:36:20.535Z,15.75
2022-09-21T19:38:48.093Z,20.48
2022-09-21T19:41:35.275Z,19.65
2022-09-21T19:44:39.437Z,19.73
2022-09-21T19:47:31.334Z,25.30
2022-09-21T19:50:22.616Z,27.10
2022-09-21T19:52:50.189Z,28.00
2022-09-21T19:55:39.599Z,20.95
2022-09-21T19:58:26.135Z,18.05
2022-09-21T20:00:56.805Z,23.35
2022-09-21T20:03:37.640Z,22.77
2022-09-21T20:06:26.343Z,19.58
2022-09-21T20:09:06.187Z,15.93
2022-09-21T20:11:56.433Z,16.05
2022-09-21T20:14:43.321Z,15.48
2022-09-21T20:17:20.378Z,13.93
2022-09-21T20:20:08.517Z,14.15
2022-09-21T20:22:39.040Z,15.77
2022-09-21T20:25:12.023Z,13.57
2022-09-21T20:27:51.704Z,12.73
2022-09-21T20:30:24.497Z,16.40
2022-09-21T20:32:56.769Z,12.77
2022-09-21T20:35:28.106Z,12.15
2022-09-21T20:37:58.674Z,10.45
2022-09-21T20:40:32.125Z,9.57
2022-09-21T20:43:01.231Z,9.55
2022-09-21T20:45:29.878Z,9.07
2022-09-21T20:48:15.781Z,10.13
2022-09-21T20:50:46.061Z,8.80
2022-09-21T20:53:13.461Z,11.43
2022-09-21T20:55:41.422Z,14.50
2022-09-21T20:58:12.732Z,11.75
2022-09-21T21:00:40.365Z,9.65
2022-09-21T21:03:07.288Z,9.20
2022-09-21T21:05:34.257Z,8.68
2022-09-21T21:08:03.927Z,13.57
2022-09-21T21:10:31.778Z,13.52
2022-09-21T21:12:59.295Z,20.90
2022-09-21T21:15:26.418Z,23.33
2022-09-21T21:17:53.511Z,17.90
2022-09-21T21:20:20.621Z,13.77
2022-09-21T21:22:51.502Z,14.30
2022-09-21T21:25:18.947Z,9.32
2022-09-21T21:27:45.809Z,9.73
2022-09-21T21:30:13.113Z,15.73
2022-09-21T21:32:40.034Z,23.13
2022-09-21T21:35:07.984Z,21.42
2022-09-21T21:37:35.157Z,20.63
2022-09-21T21:40:03.382Z,15.57
2022-09-21T21:42:30.377Z,11.18
2022-09-21T21:44:57.303Z,16.77
2022-09-21T21:47:40.933Z,20.40
2022-09-21T21:50:10.141Z,27.17
2022-09-21T21:52:37.516Z,24.63
2022-09-21T21:55:05.428Z,19.75
2022-09-21T21:57:33.335Z,15.48
2022-09-21T22:00:00.276Z,17.02
2022-09-21T22:02:29.385Z,18.77
2022-09-21T22:04:56.365Z,12.52
2022-09-21T22:07:23.263Z,16.48
2022-09-21T22:09:50.130Z,15.75
2022-09-21T22:12:17.059Z,21.95
2022-09-21T22:14:46.430Z,25.33
2022-09-21T22:17:13.554Z,25.98
2022-09-21T22:19:40.439Z,33.33
2022-09-21T22:22:07.361Z,29.48
2022-09-21T22:24:34.247Z,28.42
2022-09-21T22:27:01.186Z,26.52
2022-09-21T22:29:28.077Z,30.88
2022-09-21T22:31:55.597Z,27.98
2022-09-21T22:34:22.640Z,25.33
2022-09-21T22:36:50.727Z,28.92
2022-09-21T22:39:17.623Z,28.02
2022-09-21T22:41:44.483Z,28.92
2022-09-21T22:44:11.425Z,31.20
2022-09-21T22:46:39.367Z,28.20
2022-09-21T22:49:07.697Z,25.00
2022-09-21T22:51:35.287Z,23.98
2022-09-21T22:54:02.228Z,19.77
2022-09-21T22:56:31.795Z,16.88
2022-09-21T22:59:02.209Z,20.00
2022-09-21T23:01:39.691Z,26.73
2022-09-21T23:04:10.082Z,23.13
2022-09-21T23:06:42.406Z,19.33
2022-09-21T23:09:15.743Z,21.15
2022-09-21T23:11:47.580Z,23.60
2022-09-21T23:14:16.622Z,29.88
2022-09-21T23:16:43.646Z,34.60
2022-09-21T23:19:15.676Z,47.97
2022-09-21T23:21:46.654Z,38.65
2022-09-21T23:24:13.617Z,40.22
2022-09-21T23:26:41.197Z,35.65
2022-09-21T23:29:13.047Z,35.30
2022-09-21T23:31:44.698Z,34.40
2022-09-21T23:34:12.755Z,42.42
2022-09-21T23:36:41.032Z,29.67
2022-09-21T23:39:12.058Z,24.02
2022-09-21T23:41:39.034Z,25.75
2022-09-21T23:44:06.856Z,31.23
2022-09-21T23:46:36.939Z,34.77
2022-09-21T23:49:04.819Z,32.67
2022-09-21T23:51:32.058Z,23.95
2022-09-21T23:53:59.727Z,15.13
2022-09-21T23:56:28.225Z,19.77
2022-09-21T23:58:55.133Z,22.35
